Time;durP1;ratioP1;P1;durP2;ratioP2;P2;SDS_P1;SDS_P2;PMS_P1;PMS_P2;Temp;Humidity;BMP_temperature;BMP_pressure;BME280_temperature;BME280_humidity;BME280_pressure;Samples;Min_cycle;Max_cycle;Signal;HPM_P1;HPM_P2
2022/08/10 00:00:25;;;;;;;6.38;1.67;;;;;;;;;;5068040;28;20556;-71
2022/08/10 00:02:56;;;;;;;6.72;1.88;;;;;;;;;;5074327;28;20597;-71
2022/08/10 00:05:22;;;;;;;6.53;1.70;;;;;;;;;;5072140;28;20424;-71
2022/08/10 00:07:49;;;;;;;3.65;1.45;;;;;;;;;;5072398;28;20041;-71
2022/08/10 00:10:15;;;;;;;4.43;1.40;;;;;;;;;;5074209;28;20468;-71
2022/08/10 00:12:42;;;;;;;4.10;1.35;;;;;;;;;;5075169;28;20044;-71
2022/08/10 00:15:09;;;;;;;3.78;1.48;;;;;;;;;;5073401;28;20069;-71
2022/08/10 00:17:35;;;;;;;3.88;1.63;;;;;;;;;;5078034;28;20040;-71
2022/08/10 00:20:01;;;;;;;4.50;1.50;;;;;;;;;;5075056;28;20024;-71
2022/08/10 00:22:27;;;;;;;5.32;1.50;;;;;;;;;;5074108;28;20040;-71
2022/08/10 00:24:56;;;;;;;4.57;1.40;;;;;;;;;;5079719;28;20032;-71
2022/08/10 00:27:22;;;;;;;4.95;1.58;;;;;;;;;;5070488;28;20595;-71
2022/08/10 00:29:48;;;;;;;3.67;1.40;;;;;;;;;;5073296;28;20056;-71
2022/08/10 00:32:14;;;;;;;2.60;1.10;;;;;;;;;;5071182;28;20233;-71
2022/08/10 00:34:40;;;;;;;4.45;1.48;;;;;;;;;;5073904;28;20031;-71
2022/08/10 00:37:06;;;;;;;3.92;1.05;;;;;;;;;;5069365;28;20099;-71
2022/08/10 00:39:32;;;;;;;2.08;1.00;;;;;;;;;;5073810;28;20050;-71
2022/08/10 00:41:58;;;;;;;3.08;1.10;;;;;;;;;;5070237;28;20048;-71
2022/08/10 00:44:24;;;;;;;2.53;1.23;;;;;;;;;;5073477;28;20115;-71
2022/08/10 00:46:50;;;;;;;2.88;0.85;;;;;;;;;;5072342;28;20123;-71
2022/08/10 00:49:17;;;;;;;5.30;1.10;;;;;;;;;;5073740;28;20169;-71
2022/08/10 00:51:43;;;;;;;2.65;1.02;;;;;;;;;;5071883;28;20043;-71
2022/08/10 00:54:09;;;;;;;2.88;1.00;;;;;;;;;;5071658;28;20036;-71
2022/08/10 00:56:35;;;;;;;2.47;1.05;;;;;;;;;;5070974;28;20082;-71
2022/08/10 00:59:01;;;;;;;3.25;1.15;;;;;;;;;;5076606;28;20104;-71
2022/08/10 01:01:27;;;;;;;4.85;1.60;;;;;;;;;;5074228;28;20294;-71
2022/08/10 01:03:54;;;;;;;4.47;1.48;;;;;;;;;;5073437;28;20054;-71
2022/08/10 01:06:52;;;;;;;3.95;1.33;;;;;;;;;;5075955;28;20037;-71
2022/08/10 01:09:36;;;;;;;4.00;2.00;;;;;;;;;;5028201;28;20468;-71
2022/08/10 01:12:09;;;;;;;7.50;1.85;;;;;;;;;;5076747;28;20564;-71
2022/08/10 01:14:38;;;;;;;7.10;1.85;;;;;;;;;;5074850;28;20070;-71
2022/08/10 01:17:17;;;;;;;3.08;1.58;;;;;;;;;;5073323;28;20033;-71
2022/08/10 01:19:43;;;;;;;10.65;2.05;;;;;;;;;;5073955;28;20066;-71
2022/08/10 01:22:15;;;;;;;5.32;1.63;;;;;;;;;;5054546;28;20043;-71
2022/08/10 01:25:00;;;;;;;5.10;1.80;;;;;;;;;;5073426;28;20051;-71
2022/08/10 01:27:33;;;;;;;3.78;1.80;;;;;;;;;;5075482;28;20490;-71
2022/08/10 01:30:01;;;;;;;3.08;1.48;;;;;;;;;;5074898;28;20043;-71
2022/08/10 01:32:33;;;;;;;4.45;1.50;;;;;;;;;;5076025;28;20044;-72
2022/08/10 01:35:09;;;;;;;3.67;1.25;;;;;;;;;;5069994;28;20025;-71
2022/08/10 01:37:38;;;;;;;3.22;1.38;;;;;;;;;;5075909;28;20128;-71
2022/08/10 01:40:08;;;;;;;3.83;1.70;;;;;;;;;;5072620;28;20075;-71
2022/08/10 01:42:35;;;;;;;5.70;1.50;;;;;;;;;;5077474;28;20533;-71
2022/08/10 01:45:04;;;;;;;6.65;1.65;;;;;;;;;;5078083;28;20039;-71
2022/08/10 01:50:28;;;;;;;7.20;1.90;;;;;;;;;;5078029;28;20054;-71
2022/08/10 01:52:58;;;;;;;6.68;1.55;;;;;;;;;;5075570;28;20036;-71
2022/08/10 01:55:25;;;;;;;5.20;2.28;;;;;;;;;;5079089;28;20468;-71
2022/08/10 01:57:52;;;;;;;4.70;1.90;;;;;;;;;;5073003;28;20033;-71
2022/08/10 02:00:19;;;;;;;4.93;1.90;;;;;;;;;;5080362;28;20381;-71
2022/08/10 02:02:46;;;;;;;5.65;2.00;;;;;;;;;;5075070;28;20083;-71
2022/08/10 02:05:14;;;;;;;5.55;1.85;;;;;;;;;;5054789;28;20044;-71
2022/08/10 02:07:41;;;;;;;8.68;2.22;;;;;;;;;;5071021;28;20650;-71
2022/08/10 02:10:09;;;;;;;6.63;2.50;;;;;;;;;;5078589;28;20032;-71
2022/08/10 02:12:36;;;;;;;5.90;2.40;;;;;;;;;;5075797;28;20074;-71
2022/08/10 02:15:05;;;;;;;6.25;2.50;;;;;;;;;;5078528;28;20028;-71
2022/08/10 02:17:34;;;;;;;7.07;2.20;;;;;;;;;;5077323;28;20608;-71
2022/08/10 02:20:07;;;;;;;6.60;2.35;;;;;;;;;;5072742;28;20461;-71
2022/08/10 02:22:33;;;;;;;5.85;1.98;;;;;;;;;;5077125;28;20040;-71
2022/08/10 02:25:00;;;;;;;4.97;2.50;;;;;;;;;;5072327;28;20486;-71
2022/08/10 02:27:27;;;;;;;6.97;2.20;;;;;;;;;;5052850;28;20036;-71
2022/08/10 02:29:53;;;;;;;4.18;1.80;;;;;;;;;;5070009;28;20073;-71
2022/08/10 02:32:21;;;;;;;6.43;2.10;;;;;;;;;;5074052;28;20040;-71
2022/08/10 02:34:48;;;;;;;3.08;1.50;;;;;;;;;;5075541;28;20029;-71
2022/08/10 02:37:14;;;;;;;4.43;1.50;;;;;;;;;;5078564;28;20916;-71
2022/08/10 02:39:40;;;;;;;5.15;1.80;;;;;;;;;;5078300;28;20044;-71
2022/08/10 02:42:16;;;;;;;2.55;1.10;;;;;;;;;;5076684;28;20059;-71
2022/08/10 02:44:51;;;;;;;3.90;1.40;;;;;;;;;;5076039;28;20535;-71
2022/08/10 02:47:29;;;;;;;3.20;1.40;;;;;;;;;;5072599;28;20085;-71
2022/08/10 02:50:07;;;;;;;2.42;1.08;;;;;;;;;;5071410;28;20722;-71
2022/08/10 02:52:47;;;;;;;5.15;1.30;;;;;;;;;;5078014;28;20111;-71
2022/08/10 02:55:16;;;;;;;6.97;1.30;;;;;;;;;;5074609;28;20090;-71
2022/08/10 02:57:47;;;;;;;5.60;1.50;;;;;;;;;;5075769;28;20032;-71
2022/08/10 03:00:14;;;;;;;4.95;1.48;;;;;;;;;;5069792;28;20454;-71
2022/08/10 03:02:45;;;;;;;3.83;1.33;;;;;;;;;;5076874;28;20456;-71
2022/08/10 03:05:13;;;;;;;3.07;1.37;;;;;;;;;;5075954;28;20029;-71
2022/08/10 03:07:47;;;;;;;3.88;1.20;;;;;;;;;;5075605;28;20048;-71
2022/08/10 03:10:17;;;;;;;2.95;1.42;;;;;;;;;;5075967;28;20103;-71
2022/08/10 03:12:43;;;;;;;6.05;1.40;;;;;;;;;;5074216;28;20362;-71
2022/08/10 03:15:11;;;;;;;6.10;1.70;;;;;;;;;;5076208;28;20423;-71
2022/08/10 03:17:37;;;;;;;2.65;1.38;;;;;;;;;;5077420;28;20028;-71
2022/08/10 03:20:04;;;;;;;4.68;1.73;;;;;;;;;;5074701;28;20109;-71
2022/08/10 03:22:31;;;;;;;3.17;1.60;;;;;;;;;;5076651;28;20393;-71
2022/08/10 03:24:59;;;;;;;3.90;1.40;;;;;;;;;;5079960;28;20062;-71
2022/08/10 03:27:25;;;;;;;2.47;1.50;;;;;;;;;;5073713;28;20050;-71
2022/08/10 03:29:51;;;;;;;3.63;1.45;;;;;;;;;;5074479;28;20049;-71
2022/08/10 03:32:18;;;;;;;5.38;1.15;;;;;;;;;;5073203;28;20063;-71
2022/08/10 03:34:44;;;;;;;8.23;1.80;;;;;;;;;;5075023;28;20032;-71
2022/08/10 03:37:10;;;;;;;6.30;1.60;;;;;;;;;;5078729;28;20083;-71
2022/08/10 03:39:36;;;;;;;5.15;1.30;;;;;;;;;;5076361;28;20074;-71
2022/08/10 03:42:04;;;;;;;6.00;1.48;;;;;;;;;;5077529;28;20039;-71
2022/08/10 03:44:32;;;;;;;4.95;1.55;;;;;;;;;;5079303;28;20032;-71
2022/08/10 03:47:01;;;;;;;5.53;1.40;;;;;;;;;;5074608;28;20032;-71
2022/08/10 03:49:29;;;;;;;5.05;1.38;;;;;;;;;;5069566;28;20044;-71
2022/08/10 03:51:56;;;;;;;4.18;1.45;;;;;;;;;;5078000;28;20111;-71
2022/08/10 03:54:24;;;;;;;4.68;1.33;;;;;;;;;;5071510;28;20666;-71
2022/08/10 03:56:50;;;;;;;3.00;1.52;;;;;;;;;;5077338;28;20102;-71
2022/08/10 03:59:16;;;;;;;4.38;1.50;;;;;;;;;;5055107;28;20082;-71
2022/08/10 04:01:43;;;;;;;5.40;1.48;;;;;;;;;;5076741;28;20032;-71
2022/08/10 04:04:09;;;;;;;4.82;1.30;;;;;;;;;;5073157;28;20050;-71
2022/08/10 04:06:35;;;;;;;5.90;1.58;;;;;;;;;;5077543;28;20029;-71
2022/08/10 04:09:02;;;;;;;5.75;1.50;;;;;;;;;;5074842;28;20142;-71
2022/08/10 04:11:28;;;;;;;7.95;1.63;;;;;;;;;;5076792;28;20106;-71
2022/08/10 04:13:54;;;;;;;4.40;1.40;;;;;;;;;;5081519;28;20054;-71
2022/08/10 04:16:20;;;;;;;4.25;1.55;;;;;;;;;;5075913;28;20529;-71
2022/08/10 04:18:46;;;;;;;4.35;1.35;;;;;;;;;;5074936;28;20031;-71
2022/08/10 04:21:18;;;;;;;3.45;1.42;;;;;;;;;;5074265;28;20024;-71
2022/08/10 04:23:46;;;;;;;3.92;1.50;;;;;;;;;;5070731;28;20115;-71
2022/08/10 04:26:13;;;;;;;3.97;1.20;;;;;;;;;;5072260;28;20066;-71
2022/08/10 04:28:39;;;;;;;3.47;1.58;;;;;;;;;;5073899;28;20035;-71
2022/08/10 04:31:07;;;;;;;4.38;1.70;;;;;;;;;;5079474;28;20040;-71
2022/08/10 04:33:34;;;;;;;5.47;1.75;;;;;;;;;;5071656;28;20059;-71
2022/08/10 04:36:02;;;;;;;4.97;1.80;;;;;;;;;;5073713;28;20473;-71
2022/08/10 04:38:29;;;;;;;5.28;1.65;;;;;;;;;;5075980;28;20032;-71
2022/08/10 04:40:55;;;;;;;5.30;1.70;;;;;;;;;;5070126;28;20032;-71
2022/08/10 04:43:21;;;;;;;10.15;2.53;;;;;;;;;;5069943;28;20036;-71
2022/08/10 04:45:48;;;;;;;3.45;1.63;;;;;;;;;;5073411;28;20059;-71
2022/08/10 04:48:14;;;;;;;6.93;1.88;;;;;;;;;;5075285;28;20036;-71
2022/08/10 04:50:40;;;;;;;3.67;1.52;;;;;;;;;;5079882;28;20074;-72
2022/08/10 04:53:06;;;;;;;4.60;1.80;;;;;;;;;;5069908;28;20052;-71
2022/08/10 04:55:32;;;;;;;3.92;1.40;;;;;;;;;;5081936;28;20032;-71
2022/08/10 04:57:58;;;;;;;3.85;1.60;;;;;;;;;;5081554;28;20039;-71
2022/08/10 05:00:24;;;;;;;3.78;1.42;;;;;;;;;;5079824;28;20028;-71
2022/08/10 05:02:50;;;;;;;3.40;1.45;;;;;;;;;;5081623;28;20082;-70
2022/08/10 05:05:17;;;;;;;4.55;1.48;;;;;;;;;;5087363;28;20035;-71
2022/08/10 05:07:43;;;;;;;7.75;1.35;;;;;;;;;;5078629;28;20041;-71
2022/08/10 05:10:09;;;;;;;4.82;1.60;;;;;;;;;;5083120;28;20058;-71
2022/08/10 05:12:36;;;;;;;5.60;2.00;;;;;;;;;;5076430;28;20062;-71
2022/08/10 05:15:02;;;;;;;4.28;1.88;;;;;;;;;;5078566;28;20027;-71
2022/08/10 05:17:28;;;;;;;6.57;2.17;;;;;;;;;;5078737;28;20036;-71
2022/08/10 05:19:54;;;;;;;6.93;2.40;;;;;;;;;;5076817;28;20369;-71
2022/08/10 05:22:20;;;;;;;4.95;1.75;;;;;;;;;;5081614;28;20051;-71
2022/08/10 05:24:46;;;;;;;5.10;1.98;;;;;;;;;;5080753;28;20480;-71
2022/08/10 05:27:12;;;;;;;5.88;1.83;;;;;;;;;;5076776;28;20040;-71
2022/08/10 05:29:38;;;;;;;6.50;2.30;;;;;;;;;;5078115;28;20028;-71
2022/08/10 05:32:04;;;;;;;4.30;1.90;;;;;;;;;;5081306;28;20591;-71
2022/08/10 05:34:30;;;;;;;6.68;1.98;;;;;;;;;;5082343;28;20024;-71
2022/08/10 05:36:57;;;;;;;4.35;1.90;;;;;;;;;;5081747;28;20043;-71
2022/08/10 05:39:23;;;;;;;6.47;2.00;;;;;;;;;;5079079;28;20650;-71
2022/08/10 05:41:53;;;;;;;6.18;2.00;;;;;;;;;;5080377;28;20500;-71
2022/08/10 05:44:23;;;;;;;4.50;1.65;;;;;;;;;;5080586;28;20322;-71
2022/08/10 05:46:49;;;;;;;3.80;1.38;;;;;;;;;;5080001;28;20039;-71
2022/08/10 05:49:16;;;;;;;3.50;1.38;;;;;;;;;;5078939;28;20366;-71
2022/08/10 05:51:42;;;;;;;9.30;1.40;;;;;;;;;;5082692;28;20036;-71
2022/08/10 05:54:14;;;;;;;4.10;1.65;;;;;;;;;;5082642;28;20400;-71
2022/08/10 05:56:41;;;;;;;6.53;1.40;;;;;;;;;;5078105;28;20063;-71
2022/08/10 05:59:07;;;;;;;4.40;1.60;;;;;;;;;;5077573;28;20034;-71
2022/08/10 06:01:34;;;;;;;4.90;1.30;;;;;;;;;;5075885;28;20043;-71
2022/08/10 06:04:01;;;;;;;7.78;1.40;;;;;;;;;;5079369;28;20031;-71
2022/08/10 06:06:29;;;;;;;3.30;1.25;;;;;;;;;;5073417;28;20066;-71
2022/08/10 06:08:56;;;;;;;6.85;1.60;;;;;;;;;;5074978;28;20036;-71
2022/08/10 06:11:22;;;;;;;4.43;1.90;;;;;;;;;;5078407;28;20128;-71
2022/08/10 06:16:34;;;;;;;5.07;1.67;;;;;;;;;;5073866;28;20046;-71
2022/08/10 06:19:01;;;;;;;5.90;1.75;;;;;;;;;;5072115;28;20425;-71
2022/08/10 06:21:27;;;;;;;3.03;1.77;;;;;;;;;;5069189;28;20040;-71
2022/08/10 06:23:54;;;;;;;4.30;1.58;;;;;;;;;;5076708;28;20211;-71
2022/08/10 06:26:20;;;;;;;4.38;1.70;;;;;;;;;;5077153;28;20040;-71
2022/08/10 06:28:57;;;;;;;5.13;1.52;;;;;;;;;;5073927;28;20385;-71
2022/08/10 06:31:24;;;;;;;9.40;2.03;;;;;;;;;;5069703;28;20046;-71
2022/08/10 06:33:51;;;;;;;4.93;1.83;;;;;;;;;;5078274;28;20052;-71
2022/08/10 06:36:18;;;;;;;3.95;1.70;;;;;;;;;;5077263;28;20028;-71
2022/08/10 06:38:44;;;;;;;5.57;1.63;;;;;;;;;;5079928;28;20027;-71
2022/08/10 06:41:21;;;;;;;3.78;1.70;;;;;;;;;;5074830;28;20043;-71
2022/08/10 06:43:50;;;;;;;3.72;1.70;;;;;;;;;;5074622;28;20036;-71
2022/08/10 06:46:16;;;;;;;6.05;1.80;;;;;;;;;;5070958;28;20499;-71
2022/08/10 06:48:47;;;;;;;6.25;1.63;;;;;;;;;;5072881;28;20508;-71
2022/08/10 06:51:14;;;;;;;3.88;1.40;;;;;;;;;;5073391;28;20043;-71
2022/08/10 06:53:45;;;;;;;4.25;1.50;;;;;;;;;;5069072;28;20039;-71
2022/08/10 06:56:14;;;;;;;7.15;2.00;;;;;;;;;;5072645;28;20036;-71
2022/08/10 06:58:46;;;;;;;2.88;1.50;;;;;;;;;;5072070;28;20417;-71
2022/08/10 07:01:13;;;;;;;5.90;1.90;;;;;;;;;;5076519;28;20032;-71
2022/08/10 07:03:45;;;;;;;4.60;1.90;;;;;;;;;;5069806;28;20033;-71
2022/08/10 07:06:13;;;;;;;3.53;1.70;;;;;;;;;;5073496;28;20040;-71
2022/08/10 07:08:40;;;;;;;4.28;1.98;;;;;;;;;;5077130;28;20114;-71
2022/08/10 07:11:07;;;;;;;3.50;1.63;;;;;;;;;;5077771;28;20048;-71
2022/08/10 07:13:33;;;;;;;4.88;1.92;;;;;;;;;;5074967;28;20114;-71
2022/08/10 07:16:00;;;;;;;3.80;1.80;;;;;;;;;;5074548;28;20043;-71
2022/08/10 07:18:26;;;;;;;6.28;1.92;;;;;;;;;;5073556;28;20038;-71
2022/08/10 07:20:53;;;;;;;6.70;1.95;;;;;;;;;;5073713;28;20039;-71
2022/08/10 07:23:21;;;;;;;5.05;1.92;;;;;;;;;;5070106;28;20444;-71
2022/08/10 07:25:48;;;;;;;6.50;1.70;;;;;;;;;;5072431;28;20055;-71
2022/08/10 07:28:15;;;;;;;4.28;1.70;;;;;;;;;;5074213;28;20101;-71
2022/08/10 07:30:41;;;;;;;4.97;1.92;;;;;;;;;;5071828;28;20036;-71
2022/08/10 07:33:09;;;;;;;4.13;2.00;;;;;;;;;;5076173;28;20484;-71
2022/08/10 07:35:36;;;;;;;5.35;1.85;;;;;;;;;;5073801;28;20094;-71
2022/08/10 07:38:03;;;;;;;8.32;1.92;;;;;;;;;;5066500;28;20036;-71
2022/08/10 07:40:29;;;;;;;7.03;1.83;;;;;;;;;;5074903;28;20094;-72
2022/08/10 07:42:59;;;;;;;6.85;2.08;;;;;;;;;;5068195;28;20178;-71
2022/08/10 07:45:28;;;;;;;3.88;1.38;;;;;;;;;;5076683;28;20437;-72
2022/08/10 07:48:01;;;;;;;6.80;1.85;;;;;;;;;;5071127;28;20078;-72
2022/08/10 07:50:28;;;;;;;4.32;1.75;;;;;;;;;;5072069;28;20142;-72
2022/08/10 07:52:56;;;;;;;3.53;1.55;;;;;;;;;;5075854;28;20031;-72
2022/08/10 07:55:22;;;;;;;6.53;1.80;;;;;;;;;;5073716;28;20157;-72
2022/08/10 07:57:50;;;;;;;3.40;1.30;;;;;;;;;;5072570;28;20024;-71
2022/08/10 08:00:17;;;;;;;4.15;1.33;;;;;;;;;;5076525;28;20027;-72
2022/08/10 08:02:43;;;;;;;4.43;1.45;;;;;;;;;;5064802;28;20035;-72
2022/08/10 08:05:12;;;;;;;7.75;1.70;;;;;;;;;;5070522;28;20465;-72
2022/08/10 08:07:39;;;;;;;3.63;1.52;;;;;;;;;;5074564;28;20392;-72
2022/08/10 08:10:06;;;;;;;3.40;1.50;;;;;;;;;;5072601;28;20403;-72
2022/08/10 08:12:33;;;;;;;4.88;1.58;;;;;;;;;;5069932;28;20075;-72
2022/08/10 08:14:59;;;;;;;2.92;1.55;;;;;;;;;;5071699;28;20024;-72
2022/08/10 08:17:26;;;;;;;5.32;1.40;;;;;;;;;;5075691;28;20382;-72
2022/08/10 08:19:53;;;;;;;7.63;1.33;;;;;;;;;;5072447;28;20339;-72
2022/08/10 08:22:20;;;;;;;5.00;1.30;;;;;;;;;;5075042;28;20464;-71
2022/08/10 08:24:46;;;;;;;7.82;1.58;;;;;;;;;;5075047;28;20048;-72
2022/08/10 08:27:15;;;;;;;5.82;1.77;;;;;;;;;;5072477;28;20702;-72
2022/08/10 08:29:42;;;;;;;8.63;1.55;;;;;;;;;;5071165;28;20182;-72
2022/08/10 08:32:09;;;;;;;4.47;1.55;;;;;;;;;;5075113;28;20036;-72
2022/08/10 08:34:39;;;;;;;4.88;1.40;;;;;;;;;;5071927;28;20024;-72
2022/08/10 08:37:06;;;;;;;5.82;1.25;;;;;;;;;;5071669;28;20032;-72
2022/08/10 08:39:34;;;;;;;5.90;1.45;;;;;;;;;;5070991;28;20052;-72
2022/08/10 08:42:13;;;;;;;6.97;1.40;;;;;;;;;;5070094;28;20032;-72
2022/08/10 08:45:04;;;;;;;8.57;1.30;;;;;;;;;;5069753;28;20588;-71
2022/08/10 08:47:42;;;;;;;3.63;1.00;;;;;;;;;;5061090;28;20702;-72
2022/08/10 08:50:19;;;;;;;3.30;1.05;;;;;;;;;;5069705;28;20040;-72
2022/08/10 08:53:04;;;;;;;3.17;1.40;;;;;;;;;;5075756;28;20032;-72
2022/08/10 08:55:48;;;;;;;5.40;1.13;;;;;;;;;;5072603;28;20494;-72
2022/08/10 08:58:30;;;;;;;6.70;1.00;;;;;;;;;;5071578;28;20548;-72
2022/08/10 09:01:14;;;;;;;3.08;1.33;;;;;;;;;;5072054;28;20028;-72
2022/08/10 09:03:59;;;;;;;7.15;1.58;;;;;;;;;;5069785;28;20044;-72
2022/08/10 09:06:30;;;;;;;3.10;1.20;;;;;;;;;;5071150;28;20224;-72
2022/08/10 09:09:14;;;;;;;3.70;1.55;;;;;;;;;;5077547;28;20377;-72
2022/08/10 09:11:58;;;;;;;9.75;1.25;;;;;;;;;;5071476;28;20086;-72
2022/08/10 09:14:24;;;;;;;91.63;4.95;;;;;;;;;;5071549;28;20029;-72
2022/08/10 09:16:53;;;;;;;15.27;1.52;;;;;;;;;;5072124;28;20035;-72
2022/08/10 09:19:36;;;;;;;7.30;1.50;;;;;;;;;;5070216;28;20024;-72
2022/08/10 09:22:05;;;;;;;57.40;3.03;;;;;;;;;;5075885;28;20548;-72
2022/08/10 09:24:34;;;;;;;6.45;1.15;;;;;;;;;;5070816;28;20465;-72
2022/08/10 09:27:03;;;;;;;3.25;1.40;;;;;;;;;;5070975;28;20033;-72
2022/08/10 09:29:32;;;;;;;7.68;1.30;;;;;;;;;;5074692;28;20433;-72
2022/08/10 09:32:09;;;;;;;3.45;1.38;;;;;;;;;;5070127;28;20039;-72
2022/08/10 09:34:53;;;;;;;5.63;1.20;;;;;;;;;;5072586;28;20090;-72
2022/08/10 09:37:22;;;;;;;5.43;1.27;;;;;;;;;;5076041;28;20035;-72
2022/08/10 09:39:53;;;;;;;3.10;1.55;;;;;;;;;;5071153;28;20048;-72
2022/08/10 09:42:38;;;;;;;8.23;2.37;;;;;;;;;;5076601;28;20031;-72
2022/08/10 09:45:23;;;;;;;7.45;1.30;;;;;;;;;;5073357;28;20032;-72
2022/08/10 09:47:58;;;;;;;5.85;1.10;;;;;;;;;;5077819;28;20048;-72
2022/08/10 09:50:27;;;;;;;3.53;1.40;;;;;;;;;;5075135;28;20504;-72
2022/08/10 09:52:53;;;;;;;2.92;1.30;;;;;;;;;;5074467;28;20040;-72
2022/08/10 09:55:28;;;;;;;3.47;1.40;;;;;;;;;;5080552;28;20033;-72
2022/08/10 09:58:11;;;;;;;4.75;1.33;;;;;;;;;;5086289;28;20084;-72
2022/08/10 10:00:40;;;;;;;6.15;1.55;;;;;;;;;;5084913;28;20028;-72
2022/08/10 10:03:15;;;;;;;5.10;1.67;;;;;;;;;;5089090;28;20080;-78
2022/08/10 10:05:45;;;;;;;4.85;1.20;;;;;;;;;;5088419;28;20028;-78
2022/08/10 10:08:14;;;;;;;3.17;1.20;;;;;;;;;;5086844;28;20058;-78
2022/08/10 10:10:55;;;;;;;5.97;1.25;;;;;;;;;;5090534;28;20024;-78
2022/08/10 10:13:29;;;;;;;3.95;1.35;;;;;;;;;;5076354;28;20115;-78
2022/08/10 10:16:14;;;;;;;5.88;1.10;;;;;;;;;;5084530;28;20025;-79
2022/08/10 10:18:44;;;;;;;2.83;1.08;;;;;;;;;;5085004;28;20028;-78
2022/08/10 10:21:30;;;;;;;6.13;1.10;;;;;;;;;;5079182;28;20363;-78
2022/08/10 10:24:15;;;;;;;4.25;1.10;;;;;;;;;;5078048;28;20142;-78
2022/08/10 10:26:49;;;;;;;3.45;1.35;;;;;;;;;;5080181;28;20099;-78
2022/08/10 10:29:30;;;;;;;3.28;1.10;;;;;;;;;;5077902;28;20040;-78
2022/08/10 10:32:09;;;;;;;3.85;1.10;;;;;;;;;;5087494;28;20028;-78
2022/08/10 10:34:53;;;;;;;4.07;1.00;;;;;;;;;;5074257;28;20028;-79
2022/08/10 10:37:20;;;;;;;2.35;1.17;;;;;;;;;;5070839;28;20461;-79
2022/08/10 10:39:49;;;;;;;6.63;1.10;;;;;;;;;;5072863;28;20052;-78
2022/08/10 10:42:34;;;;;;;4.82;1.15;;;;;;;;;;5075403;28;20447;-79
2022/08/10 10:45:00;;;;;;;2.95;1.05;;;;;;;;;;5071293;28;20028;-79
2022/08/10 10:47:26;;;;;;;3.80;0.90;;;;;;;;;;5078810;28;20081;-79
2022/08/10 10:49:57;;;;;;;5.32;1.20;;;;;;;;;;5077515;28;20040;-79
2022/08/10 10:52:23;;;;;;;;;;;;;;;;;;5079771;28;20032;-78
2022/08/10 10:55:03;;;;;;;4.30;0.90;;;;;;;;;;5078174;28;19923;-79
2022/08/10 10:57:40;;;;;;;3.00;0.95;;;;;;;;;;5075202;28;20134;-78
2022/08/10 11:00:08;;;;;;;2.10;0.90;;;;;;;;;;5078075;28;20071;-79
2022/08/10 11:02:37;;;;;;;3.15;1.00;;;;;;;;;;5074285;28;20028;-79
2022/08/10 11:05:18;;;;;;;2.72;1.27;;;;;;;;;;5073431;28;20038;-79
2022/08/10 11:07:49;;;;;;;3.60;0.90;;;;;;;;;;5080254;28;20027;-79
2022/08/10 11:10:18;;;;;;;6.88;1.20;;;;;;;;;;5078063;28;20520;-79
2022/08/10 11:12:53;;;;;;;3.20;0.85;;;;;;;;;;5076683;28;20043;-79
2022/08/10 11:15:37;;;;;;;4.57;0.90;;;;;;;;;;5078758;28;20060;-79
2022/08/10 11:18:03;;;;;;;9.20;1.35;;;;;;;;;;5076377;28;20085;-79
2022/08/10 11:20:41;;;;;;;3.75;1.15;;;;;;;;;;5078808;28;20417;-79
2022/08/10 11:23:20;;;;;;;5.78;1.00;;;;;;;;;;5074191;28;20039;-79
2022/08/10 11:25:51;;;;;;;5.07;1.52;;;;;;;;;;5071120;28;20123;-79
2022/08/10 11:28:17;;;;;;;7.30;1.30;;;;;;;;;;5077463;28;20499;-79
2022/08/10 11:30:56;;;;;;;7.65;1.23;;;;;;;;;;5076501;28;20041;-79
2022/08/10 11:33:42;;;;;;;7.82;1.17;;;;;;;;;;5078154;28;20439;-79
2022/08/10 11:36:14;;;;;;;7.18;1.23;;;;;;;;;;5075309;28;20376;-79
2022/08/10 11:38:51;;;;;;;6.50;1.17;;;;;;;;;;5074798;28;20154;-78
2022/08/10 11:41:17;;;;;;;4.95;1.20;;;;;;;;;;5077756;28;20028;-79
2022/08/10 11:43:51;;;;;;;6.72;1.10;;;;;;;;;;5077983;28;20032;-79
2022/08/10 11:46:33;;;;;;;7.40;1.17;;;;;;;;;;5077118;28;20024;-79
2022/08/10 11:49:08;;;;;;;9.40;1.10;;;;;;;;;;5078626;28;20039;-79
2022/08/10 11:51:52;;;;;;;2.55;1.00;;;;;;;;;;5078555;28;20440;-79
2022/08/10 11:54:25;;;;;;;4.90;1.00;;;;;;;;;;5078239;28;20720;-79
2022/08/10 11:56:56;;;;;;;3.92;1.17;;;;;;;;;;5078127;28;20055;-78
2022/08/10 12:02:10;;;;;;;3.08;0.90;;;;;;;;;;5076207;28;20429;-79
2022/08/10 12:04:39;;;;;;;5.10;1.08;;;;;;;;;;5073602;28;20059;-79
2022/08/10 12:07:07;;;;;;;5.78;0.95;;;;;;;;;;5074918;28;20024;-79
2022/08/10 12:09:34;;;;;;;5.78;1.30;;;;;;;;;;5073520;28;20162;-78
2022/08/10 12:12:00;;;;;;;3.80;0.90;;;;;;;;;;5075349;28;20020;-79
2022/08/10 12:14:55;;;;;;;5.18;1.10;;;;;;;;;;5078706;28;20044;-79
2022/08/10 12:17:21;;;;;;;3.63;1.33;;;;;;;;;;4990149;28;20049;-79
2022/08/10 12:19:54;;;;;;;4.75;1.00;;;;;;;;;;5075149;28;20447;-79
2022/08/10 12:22:22;;;;;;;5.22;0.82;;;;;;;;;;5078143;28;20108;-79
2022/08/10 12:24:51;;;;;;;4.35;0.70;;;;;;;;;;5079774;28;20032;-79
2022/08/10 12:27:20;;;;;;;6.40;1.00;;;;;;;;;;5071923;28;20108;-79
2022/08/10 12:29:49;;;;;;;7.10;1.08;;;;;;;;;;5074608;28;20041;-79
2022/08/10 12:32:16;;;;;;;1.73;0.70;;;;;;;;;;5074521;28;20028;-79
2022/08/10 12:35:01;;;;;;;2.90;0.95;;;;;;;;;;5073214;28;20032;-79
2022/08/10 12:37:33;;;;;;;6.78;0.88;;;;;;;;;;5075569;28;20031;-79
2022/08/10 12:40:05;;;;;;;3.25;0.70;;;;;;;;;;5079360;28;20101;-79
2022/08/10 12:42:50;;;;;;;2.85;0.70;;;;;;;;;;5077446;28;20024;-79
2022/08/10 12:45:31;;;;;;;5.63;0.80;;;;;;;;;;5073799;28;20044;-79
2022/08/10 12:48:00;;;;;;;4.50;0.85;;;;;;;;;;5076959;28;20417;-79
2022/08/10 12:50:36;;;;;;;6.05;0.80;;;;;;;;;;5075144;28;20557;-79
2022/08/10 12:53:06;;;;;;;3.92;0.80;;;;;;;;;;5075978;28;20031;-79
2022/08/10 12:55:32;;;;;;;5.97;0.80;;;;;;;;;;5075197;28;20455;-79
2022/08/10 12:57:59;;;;;;;4.20;0.90;;;;;;;;;;5077843;28;20028;-79
2022/08/10 13:00:33;;;;;;;8.13;0.73;;;;;;;;;;5080188;28;20033;-79
2022/08/10 13:03:00;;;;;;;1.15;0.65;;;;;;;;;;5074832;28;20522;-79
2022/08/10 13:05:27;;;;;;;1.80;0.60;;;;;;;;;;5078697;28;20122;-79
2022/08/10 13:09:07;;;;;;;1.60;0.80;;;;;;;;;;5079343;28;20431;-79
2022/08/10 13:10:51;;;;;;;3.92;0.88;;;;;;;;;;5074719;28;20047;-79
2022/08/10 13:13:20;;;;;;;1.40;0.60;;;;;;;;;;5071486;28;20200;-79
2022/08/10 13:15:47;;;;;;;3.42;0.82;;;;;;;;;;5076078;28;20059;-79
2022/08/10 13:18:15;;;;;;;2.58;0.75;;;;;;;;;;5076842;28;20096;-79
2022/08/10 13:20:41;;;;;;;1.45;0.70;;;;;;;;;;5059057;28;20468;-79
2022/08/10 13:23:15;;;;;;;3.55;0.80;;;;;;;;;;5078369;28;20067;-80
2022/08/10 13:25:50;;;;;;;3.13;0.80;;;;;;;;;;5081595;28;20481;-79
2022/08/10 13:28:20;;;;;;;2.35;0.75;;;;;;;;;;5079414;28;20040;-79
2022/08/10 13:30:47;;;;;;;1.60;0.60;;;;;;;;;;5079546;28;20472;-79
2022/08/10 13:33:16;;;;;;;2.80;0.68;;;;;;;;;;5081087;28;20027;-79
2022/08/10 13:35:44;;;;;;;1.98;0.70;;;;;;;;;;5081808;28;20462;-79
2022/08/10 13:38:12;;;;;;;2.22;0.77;;;;;;;;;;5082477;28;20158;-79
2022/08/10 13:40:38;;;;;;;1.55;0.68;;;;;;;;;;5079250;28;20059;-79
2022/08/10 13:43:06;;;;;;;3.25;0.73;;;;;;;;;;5083298;28;20478;-79
2022/08/10 13:45:33;;;;;;;2.30;0.73;;;;;;;;;;5079751;28;20402;-78
2022/08/10 13:48:14;;;;;;;4.55;0.70;;;;;;;;;;5076434;28;20024;-79
2022/08/10 13:50:41;;;;;;;3.78;0.70;;;;;;;;;;5079506;28;20119;-79
2022/08/10 13:53:11;;;;;;;1.73;0.60;;;;;;;;;;5080338;28;20033;-79
2022/08/10 13:55:40;;;;;;;2.60;0.60;;;;;;;;;;5080918;28;20112;-79
2022/08/10 13:58:06;;;;;;;7.40;1.00;;;;;;;;;;5081859;28;20044;-79
2022/08/10 14:00:37;;;;;;;5.22;1.02;;;;;;;;;;5079473;28;20050;-79
2022/08/10 14:03:03;;;;;;;4.90;0.82;;;;;;;;;;5079963;28;20089;-79
2022/08/10 14:05:32;;;;;;;4.65;0.90;;;;;;;;;;5078347;28;20037;-78
2022/08/10 14:07:58;;;;;;;3.30;0.85;;;;;;;;;;5081885;28;20028;-79
2022/08/10 14:10:26;;;;;;;3.20;0.90;;;;;;;;;;5083548;28;20112;-78
2022/08/10 14:12:53;;;;;;;4.40;0.90;;;;;;;;;;5080570;28;20039;-79
2022/08/10 14:15:25;;;;;;;8.10;1.10;;;;;;;;;;5077673;28;20032;-79
2022/08/10 14:17:54;;;;;;;4.35;0.73;;;;;;;;;;5083282;28;20466;-79
2022/08/10 14:20:21;;;;;;;4.13;0.80;;;;;;;;;;5079104;28;20497;-78
2022/08/10 14:22:47;;;;;;;1.88;0.88;;;;;;;;;;5081297;28;20370;-79
2022/08/10 14:25:14;;;;;;;4.63;0.80;;;;;;;;;;5078553;28;20093;-79
2022/08/10 14:27:44;;;;;;;6.00;0.98;;;;;;;;;;5077766;28;20028;-78
2022/08/10 14:30:14;;;;;;;2.88;0.80;;;;;;;;;;5075219;28;20033;-78
2022/08/10 14:32:43;;;;;;;1.85;0.80;;;;;;;;;;5077701;28;20027;-78
2022/08/10 14:35:10;;;;;;;2.70;0.80;;;;;;;;;;5081510;28;20499;-78
2022/08/10 14:37:37;;;;;;;2.10;0.90;;;;;;;;;;5078980;28;20051;-78
2022/08/10 14:40:05;;;;;;;3.97;0.85;;;;;;;;;;5079526;28;20047;-78
2022/08/10 14:42:36;;;;;;;1.98;0.80;;;;;;;;;;5079311;28;20028;-78
2022/08/10 14:45:12;;;;;;;4.57;0.90;;;;;;;;;;5081214;28;20543;-78
2022/08/10 14:47:40;;;;;;;1.58;0.77;;;;;;;;;;5083019;28;20028;-78
2022/08/10 14:50:06;;;;;;;4.50;0.70;;;;;;;;;;5077664;28;20040;-79
2022/08/10 14:52:39;;;;;;;2.83;0.70;;;;;;;;;;5076159;28;20386;-78
2022/08/10 14:55:06;;;;;;;4.65;1.00;;;;;;;;;;5082548;28;20070;-79
2022/08/10 14:57:33;;;;;;;2.05;0.95;;;;;;;;;;5080566;28;20496;-78
2022/08/10 14:59:59;;;;;;;1.67;0.80;;;;;;;;;;5075872;28;20092;-78
2022/08/10 15:02:26;;;;;;;4.35;0.85;;;;;;;;;;5078664;28;20036;-78
2022/08/10 15:04:52;;;;;;;3.72;0.95;;;;;;;;;;5078499;28;20036;-79
2022/08/10 15:07:20;;;;;;;2.08;0.80;;;;;;;;;;5075718;28;20416;-78